sensor_id;sensor_type;location;lat;lon;timestamp;P1;durP1;ratioP1;P2;durP2;ratioP2
45887;SDS011;31595;51.418;7.572;2023-04-29T00:01:35;15.00;;;11.15;;
45887;SDS011;31595;51.418;7.572;2023-04-29T00:04:03;13.90;;;10.45;;
45887;SDS011;31595;51.418;7.572;2023-04-29T00:06:33;14.00;;;11.05;;
45887;SDS011;31595;51.418;7.572;2023-04-29T00:09:01;14.68;;;11.35;;
45887;SDS011;31595;51.418;7.572;2023-04-29T00:11:29;14.70;;;11.40;;
45887;SDS011;31595;51.418;7.572;2023-04-29T00:13:57;14.80;;;11.02;;
45887;SDS011;31595;51.418;7.572;2023-04-29T00:16:26;14.57;;;11.60;;
45887;SDS011;31595;51.418;7.572;2023-04-29T00:18:53;13.55;;;11.68;;
45887;SDS011;31595;51.418;7.572;2023-04-29T00:21:22;19.77;;;12.90;;
45887;SDS011;31595;51.418;7.572;2023-04-29T00:23:49;14.65;;;12.75;;
45887;SDS011;31595;51.418;7.572;2023-04-29T00:26:16;15.75;;;13.10;;
45887;SDS011;31595;51.418;7.572;2023-04-29T00:28:45;17.77;;;13.70;;
45887;SDS011;31595;51.418;7.572;2023-04-29T00:31:12;15.40;;;12.82;;
45887;SDS011;31595;51.418;7.572;2023-04-29T00:33:39;18.30;;;14.15;;
45887;SDS011;31595;51.418;7.572;2023-04-29T00:36:07;16.73;;;13.95;;
45887;SDS011;31595;51.418;7.572;2023-04-29T00:38:35;16.88;;;13.85;;
45887;SDS011;31595;51.418;7.572;2023-04-29T00:41:03;18.42;;;14.43;;
45887;SDS011;31595;51.418;7.572;2023-04-29T00:43:30;19.48;;;16.15;;
45887;SDS011;31595;51.418;7.572;2023-04-29T00:45:58;19.00;;;15.60;;
45887;SDS011;31595;51.418;7.572;2023-04-29T00:48:26;16.73;;;14.52;;
45887;SDS011;31595;51.418;7.572;2023-04-29T00:50:53;17.40;;;14.90;;
45887;SDS011;31595;51.418;7.572;2023-04-29T00:53:23;18.30;;;14.82;;
45887;SDS011;31595;51.418;7.572;2023-04-29T00:55:52;18.65;;;15.93;;
45887;SDS011;31595;51.418;7.572;2023-04-29T00:58:22;19.30;;;16.05;;
45887;SDS011;31595;51.418;7.572;2023-04-29T01:00:57;21.05;;;16.67;;
45887;SDS011;31595;51.418;7.572;2023-04-29T01:03:25;20.17;;;17.40;;
45887;SDS011;31595;51.418;7.572;2023-04-29T01:05:57;22.42;;;18.23;;
45887;SDS011;31595;51.418;7.572;2023-04-29T01:08:36;22.77;;;18.17;;
45887;SDS011;31595;51.418;7.572;2023-04-29T01:11:19;22.30;;;16.73;;
45887;SDS011;31595;51.418;7.572;2023-04-29T01:13:49;20.58;;;16.42;;
45887;SDS011;31595;51.418;7.572;2023-04-29T01:16:19;22.15;;;17.23;;
45887;SDS011;31595;51.418;7.572;2023-04-29T01:18:54;21.52;;;16.75;;
45887;SDS011;31595;51.418;7.572;2023-04-29T01:21:24;20.52;;;16.15;;
45887;SDS011;31595;51.418;7.572;2023-04-29T01:23:52;20.83;;;16.63;;
45887;SDS011;31595;51.418;7.572;2023-04-29T01:26:21;20.63;;;16.50;;
45887;SDS011;31595;51.418;7.572;2023-04-29T01:28:52;20.63;;;16.55;;
45887;SDS011;31595;51.418;7.572;2023-04-29T01:31:24;22.15;;;16.55;;
45887;SDS011;31595;51.418;7.572;2023-04-29T01:33:58;22.45;;;17.63;;
45887;SDS011;31595;51.418;7.572;2023-04-29T01:36:36;22.75;;;17.27;;
45887;SDS011;31595;51.418;7.572;2023-04-29T01:39:15;21.98;;;17.20;;
45887;SDS011;31595;51.418;7.572;2023-04-29T01:41:52;23.27;;;18.67;;
45887;SDS011;31595;51.418;7.572;2023-04-29T01:44:26;23.88;;;17.63;;
45887;SDS011;31595;51.418;7.572;2023-04-29T01:46:56;22.05;;;17.02;;
45887;SDS011;31595;51.418;7.572;2023-04-29T01:49:24;22.08;;;17.80;;
45887;SDS011;31595;51.418;7.572;2023-04-29T01:51:52;24.55;;;17.38;;
45887;SDS011;31595;51.418;7.572;2023-04-29T01:54:21;25.95;;;18.75;;
45887;SDS011;31595;51.418;7.572;2023-04-29T01:56:48;22.87;;;18.30;;
45887;SDS011;31595;51.418;7.572;2023-04-29T01:59:16;26.90;;;21.15;;
45887;SDS011;31595;51.418;7.572;2023-04-29T02:01:43;29.52;;;21.02;;
45887;SDS011;31595;51.418;7.572;2023-04-29T02:04:10;31.90;;;23.83;;
45887;SDS011;31595;51.418;7.572;2023-04-29T02:06:38;32.45;;;23.52;;
45887;SDS011;31595;51.418;7.572;2023-04-29T02:09:05;34.15;;;24.48;;
45887;SDS011;31595;51.418;7.572;2023-04-29T02:11:34;33.85;;;24.30;;
45887;SDS011;31595;51.418;7.572;2023-04-29T02:14:01;36.72;;;25.13;;
45887;SDS011;31595;51.418;7.572;2023-04-29T02:16:28;35.78;;;25.55;;
45887;SDS011;31595;51.418;7.572;2023-04-29T02:18:55;37.92;;;25.75;;
45887;SDS011;31595;51.418;7.572;2023-04-29T02:21:23;38.05;;;26.02;;
45887;SDS011;31595;51.418;7.572;2023-04-29T02:23:51;36.15;;;24.00;;
45887;SDS011;31595;51.418;7.572;2023-04-29T02:26:19;39.72;;;25.73;;
45887;SDS011;31595;51.418;7.572;2023-04-29T02:28:49;35.67;;;26.00;;
45887;SDS011;31595;51.418;7.572;2023-04-29T02:31:17;36.70;;;26.23;;
45887;SDS011;31595;51.418;7.572;2023-04-29T02:33:44;43.50;;;26.85;;
45887;SDS011;31595;51.418;7.572;2023-04-29T02:36:11;39.20;;;26.33;;
45887;SDS011;31595;51.418;7.572;2023-04-29T02:38:38;35.78;;;25.48;;
45887;SDS011;31595;51.418;7.572;2023-04-29T02:41:06;37.33;;;25.35;;
45887;SDS011;31595;51.418;7.572;2023-04-29T02:43:33;36.20;;;25.48;;
45887;SDS011;31595;51.418;7.572;2023-04-29T02:46:02;34.30;;;23.98;;
45887;SDS011;31595;51.418;7.572;2023-04-29T02:48:30;40.08;;;26.55;;
45887;SDS011;31595;51.418;7.572;2023-04-29T02:50:57;38.67;;;25.30;;
45887;SDS011;31595;51.418;7.572;2023-04-29T02:53:24;37.83;;;26.10;;
45887;SDS011;31595;51.418;7.572;2023-04-29T02:55:51;40.83;;;26.73;;
45887;SDS011;31595;51.418;7.572;2023-04-29T02:58:19;40.55;;;26.90;;
45887;SDS011;31595;51.418;7.572;2023-04-29T03:00:46;45.50;;;28.48;;
45887;SDS011;31595;51.418;7.572;2023-04-29T03:03:14;46.75;;;28.83;;
45887;SDS011;31595;51.418;7.572;2023-04-29T03:05:42;37.80;;;24.23;;
45887;SDS011;31595;51.418;7.572;2023-04-29T03:08:09;38.70;;;23.98;;
45887;SDS011;31595;51.418;7.572;2023-04-29T03:10:36;39.38;;;23.90;;
45887;SDS011;31595;51.418;7.572;2023-04-29T03:13:04;39.50;;;24.98;;
45887;SDS011;31595;51.418;7.572;2023-04-29T03:15:31;42.58;;;27.33;;
45887;SDS011;31595;51.418;7.572;2023-04-29T03:17:58;45.92;;;26.65;;
45887;SDS011;31595;51.418;7.572;2023-04-29T03:20:27;50.08;;;30.20;;
45887;SDS011;31595;51.418;7.572;2023-04-29T03:22:55;46.38;;;28.08;;
45887;SDS011;31595;51.418;7.572;2023-04-29T03:25:22;44.50;;;27.88;;
45887;SDS011;31595;51.418;7.572;2023-04-29T03:27:49;40.45;;;26.50;;
45887;SDS011;31595;51.418;7.572;2023-04-29T03:30:17;44.10;;;27.63;;
45887;SDS011;31595;51.418;7.572;2023-04-29T03:32:44;44.33;;;26.52;;
45887;SDS011;31595;51.418;7.572;2023-04-29T03:35:11;40.55;;;24.33;;
45887;SDS011;31595;51.418;7.572;2023-04-29T03:37:40;40.67;;;24.58;;
45887;SDS011;31595;51.418;7.572;2023-04-29T03:40:09;36.67;;;23.42;;
45887;SDS011;31595;51.418;7.572;2023-04-29T03:42:39;32.95;;;21.60;;
45887;SDS011;31595;51.418;7.572;2023-04-29T03:45:07;30.13;;;20.33;;
45887;SDS011;31595;51.418;7.572;2023-04-29T03:47:37;31.38;;;19.60;;
45887;SDS011;31595;51.418;7.572;2023-04-29T03:50:05;27.38;;;17.77;;
45887;SDS011;31595;51.418;7.572;2023-04-29T03:52:33;28.67;;;18.75;;
45887;SDS011;31595;51.418;7.572;2023-04-29T03:55:03;26.63;;;17.73;;
45887;SDS011;31595;51.418;7.572;2023-04-29T03:57:31;25.55;;;16.92;;
45887;SDS011;31595;51.418;7.572;2023-04-29T03:59:59;24.13;;;16.60;;
45887;SDS011;31595;51.418;7.572;2023-04-29T04:02:26;24.83;;;16.58;;
45887;SDS011;31595;51.418;7.572;2023-04-29T04:04:54;25.88;;;16.58;;
45887;SDS011;31595;51.418;7.572;2023-04-29T04:07:21;24.60;;;17.38;;
45887;SDS011;31595;51.418;7.572;2023-04-29T04:09:48;24.10;;;18.08;;
45887;SDS011;31595;51.418;7.572;2023-04-29T04:12:17;23.17;;;17.25;;
45887;SDS011;31595;51.418;7.572;2023-04-29T04:14:44;22.85;;;16.10;;
45887;SDS011;31595;51.418;7.572;2023-04-29T04:17:13;26.73;;;18.52;;
45887;SDS011;31595;51.418;7.572;2023-04-29T04:19:40;23.05;;;15.80;;
45887;SDS011;31595;51.418;7.572;2023-04-29T04:22:07;25.63;;;17.60;;
45887;SDS011;31595;51.418;7.572;2023-04-29T04:24:38;23.20;;;16.63;;
45887;SDS011;31595;51.418;7.572;2023-04-29T04:27:05;25.65;;;18.15;;
45887;SDS011;31595;51.418;7.572;2023-04-29T04:29:33;29.45;;;19.33;;
45887;SDS011;31595;51.418;7.572;2023-04-29T04:32:01;26.45;;;17.80;;
45887;SDS011;31595;51.418;7.572;2023-04-29T04:34:28;27.45;;;17.95;;
45887;SDS011;31595;51.418;7.572;2023-04-29T04:36:58;23.83;;;17.20;;
45887;SDS011;31595;51.418;7.572;2023-04-29T04:39:26;23.33;;;17.48;;
45887;SDS011;31595;51.418;7.572;2023-04-29T04:41:53;26.02;;;17.67;;
45887;SDS011;31595;51.418;7.572;2023-04-29T04:44:20;22.50;;;15.52;;
45887;SDS011;31595;51.418;7.572;2023-04-29T04:46:49;24.25;;;16.58;;
45887;SDS011;31595;51.418;7.572;2023-04-29T04:49:16;24.42;;;17.08;;
45887;SDS011;31595;51.418;7.572;2023-04-29T04:51:44;24.33;;;18.02;;
45887;SDS011;31595;51.418;7.572;2023-04-29T04:54:11;27.45;;;19.08;;
45887;SDS011;31595;51.418;7.572;2023-04-29T04:56:39;26.48;;;18.92;;
45887;SDS011;31595;51.418;7.572;2023-04-29T04:59:06;29.65;;;19.55;;
45887;SDS011;31595;51.418;7.572;2023-04-29T05:01:33;25.45;;;18.27;;
45887;SDS011;31595;51.418;7.572;2023-04-29T05:04:02;25.40;;;17.67;;
45887;SDS011;31595;51.418;7.572;2023-04-29T05:06:29;25.80;;;18.50;;
45887;SDS011;31595;51.418;7.572;2023-04-29T05:08:57;25.83;;;18.10;;
45887;SDS011;31595;51.418;7.572;2023-04-29T05:11:24;25.25;;;17.42;;
45887;SDS011;31595;51.418;7.572;2023-04-29T05:13:51;23.35;;;17.63;;
45887;SDS011;31595;51.418;7.572;2023-04-29T05:16:18;23.98;;;17.67;;
45887;SDS011;31595;51.418;7.572;2023-04-29T05:18:46;25.40;;;17.58;;
45887;SDS011;31595;51.418;7.572;2023-04-29T05:21:14;22.50;;;16.75;;
45887;SDS011;31595;51.418;7.572;2023-04-29T05:23:42;25.70;;;17.52;;
45887;SDS011;31595;51.418;7.572;2023-04-29T05:26:09;22.55;;;16.33;;
45887;SDS011;31595;51.418;7.572;2023-04-29T05:28:36;23.38;;;16.88;;
45887;SDS011;31595;51.418;7.572;2023-04-29T05:31:04;23.88;;;17.15;;
45887;SDS011;31595;51.418;7.572;2023-04-29T05:33:32;23.13;;;16.27;;
45887;SDS011;31595;51.418;7.572;2023-04-29T05:35:59;23.50;;;16.02;;
45887;SDS011;31595;51.418;7.572;2023-04-29T05:38:28;22.25;;;16.52;;
45887;SDS011;31595;51.418;7.572;2023-04-29T05:40:58;24.17;;;18.27;;
45887;SDS011;31595;51.418;7.572;2023-04-29T05:43:25;22.55;;;17.35;;
45887;SDS011;31595;51.418;7.572;2023-04-29T05:45:52;23.63;;;18.45;;
45887;SDS011;31595;51.418;7.572;2023-04-29T05:48:20;24.33;;;17.52;;
45887;SDS011;31595;51.418;7.572;2023-04-29T05:50:48;23.85;;;18.65;;
45887;SDS011;31595;51.418;7.572;2023-04-29T05:53:15;24.17;;;18.75;;
45887;SDS011;31595;51.418;7.572;2023-04-29T05:55:44;24.92;;;19.40;;
45887;SDS011;31595;51.418;7.572;2023-04-29T05:58:12;23.60;;;17.33;;
45887;SDS011;31595;51.418;7.572;2023-04-29T06:00:39;23.33;;;18.10;;
45887;SDS011;31595;51.418;7.572;2023-04-29T06:03:08;21.10;;;17.30;;
45887;SDS011;31595;51.418;7.572;2023-04-29T06:05:36;24.75;;;19.08;;
45887;SDS011;31595;51.418;7.572;2023-04-29T06:08:04;22.83;;;16.77;;
45887;SDS011;31595;51.418;7.572;2023-04-29T06:10:31;23.95;;;18.88;;
45887;SDS011;31595;51.418;7.572;2023-04-29T06:13:00;24.20;;;19.50;;
45887;SDS011;31595;51.418;7.572;2023-04-29T06:15:27;23.52;;;18.40;;
45887;SDS011;31595;51.418;7.572;2023-04-29T06:17:54;23.15;;;18.98;;
45887;SDS011;31595;51.418;7.572;2023-04-29T06:20:22;22.35;;;17.27;;
45887;SDS011;31595;51.418;7.572;2023-04-29T06:22:49;22.67;;;18.02;;
45887;SDS011;31595;51.418;7.572;2023-04-29T06:25:16;20.98;;;17.25;;
45887;SDS011;31595;51.418;7.572;2023-04-29T06:27:43;22.25;;;17.83;;
45887;SDS011;31595;51.418;7.572;2023-04-29T06:30:12;21.45;;;16.95;;
45887;SDS011;31595;51.418;7.572;2023-04-29T06:32:39;20.25;;;16.35;;
45887;SDS011;31595;51.418;7.572;2023-04-29T06:35:07;22.85;;;17.70;;
45887;SDS011;31595;51.418;7.572;2023-04-29T06:37:34;19.60;;;15.88;;
45887;SDS011;31595;51.418;7.572;2023-04-29T06:40:02;18.92;;;14.73;;
45887;SDS011;31595;51.418;7.572;2023-04-29T06:42:29;17.95;;;15.00;;
45887;SDS011;31595;51.418;7.572;2023-04-29T06:44:56;20.33;;;15.48;;
45887;SDS011;31595;51.418;7.572;2023-04-29T06:47:25;20.27;;;16.02;;
45887;SDS011;31595;51.418;7.572;2023-04-29T06:49:52;16.08;;;14.10;;
45887;SDS011;31595;51.418;7.572;2023-04-29T06:52:20;18.02;;;14.85;;
45887;SDS011;31595;51.418;7.572;2023-04-29T06:54:47;18.60;;;15.07;;
45887;SDS011;31595;51.418;7.572;2023-04-29T06:57:14;18.27;;;15.90;;
45887;SDS011;31595;51.418;7.572;2023-04-29T06:59:41;19.17;;;15.77;;
45887;SDS011;31595;51.418;7.572;2023-04-29T07:02:09;19.75;;;16.55;;
45887;SDS011;31595;51.418;7.572;2023-04-29T07:04:37;22.20;;;17.60;;
45887;SDS011;31595;51.418;7.572;2023-04-29T07:07:05;19.45;;;16.38;;
45887;SDS011;31595;51.418;7.572;2023-04-29T07:09:32;19.70;;;16.52;;
45887;SDS011;31595;51.418;7.572;2023-04-29T07:12:00;19.77;;;17.08;;
45887;SDS011;31595;51.418;7.572;2023-04-29T07:14:29;19.85;;;16.10;;
45887;SDS011;31595;51.418;7.572;2023-04-29T07:16:56;19.02;;;16.92;;
45887;SDS011;31595;51.418;7.572;2023-04-29T07:19:23;21.45;;;17.60;;
45887;SDS011;31595;51.418;7.572;2023-04-29T07:21:52;20.17;;;16.55;;
45887;SDS011;31595;51.418;7.572;2023-04-29T07:24:19;21.10;;;16.88;;
45887;SDS011;31595;51.418;7.572;2023-04-29T07:26:48;20.58;;;17.20;;
45887;SDS011;31595;51.418;7.572;2023-04-29T07:29:15;19.15;;;16.50;;
45887;SDS011;31595;51.418;7.572;2023-04-29T07:31:42;21.35;;;16.90;;
45887;SDS011;31595;51.418;7.572;2023-04-29T07:34:09;20.02;;;16.15;;
45887;SDS011;31595;51.418;7.572;2023-04-29T07:36:37;19.98;;;16.05;;
45887;SDS011;31595;51.418;7.572;2023-04-29T07:39:06;20.67;;;16.27;;
45887;SDS011;31595;51.418;7.572;2023-04-29T07:41:33;18.80;;;15.25;;
45887;SDS011;31595;51.418;7.572;2023-04-29T07:44:00;21.15;;;17.38;;
45887;SDS011;31595;51.418;7.572;2023-04-29T07:46:28;18.50;;;15.18;;
45887;SDS011;31595;51.418;7.572;2023-04-29T07:48:56;22.08;;;17.98;;
45887;SDS011;31595;51.418;7.572;2023-04-29T07:51:23;22.52;;;19.85;;
45887;SDS011;31595;51.418;7.572;2023-04-29T07:53:53;23.20;;;18.63;;
45887;SDS011;31595;51.418;7.572;2023-04-29T07:56:22;24.88;;;18.70;;
45887;SDS011;31595;51.418;7.572;2023-04-29T07:58:49;25.80;;;18.10;;
45887;SDS011;31595;51.418;7.572;2023-04-29T08:01:16;24.02;;;19.35;;
45887;SDS011;31595;51.418;7.572;2023-04-29T08:03:43;22.23;;;16.70;;
45887;SDS011;31595;51.418;7.572;2023-04-29T08:06:11;21.98;;;17.85;;
45887;SDS011;31595;51.418;7.572;2023-04-29T08:08:38;25.80;;;19.40;;
45887;SDS011;31595;51.418;7.572;2023-04-29T08:11:05;25.25;;;18.67;;
45887;SDS011;31595;51.418;7.572;2023-04-29T08:13:34;25.02;;;19.50;;
45887;SDS011;31595;51.418;7.572;2023-04-29T08:16:01;25.57;;;22.00;;
45887;SDS011;31595;51.418;7.572;2023-04-29T08:18:29;31.27;;;23.40;;
45887;SDS011;31595;51.418;7.572;2023-04-29T08:20:56;29.77;;;21.15;;
45887;SDS011;31595;51.418;7.572;2023-04-29T08:23:30;28.52;;;21.15;;
45887;SDS011;31595;51.418;7.572;2023-04-29T08:25:57;24.15;;;19.52;;
45887;SDS011;31595;51.418;7.572;2023-04-29T08:28:25;22.20;;;18.90;;
45887;SDS011;31595;51.418;7.572;2023-04-29T08:30:53;24.25;;;19.25;;
45887;SDS011;31595;51.418;7.572;2023-04-29T08:33:21;26.20;;;20.40;;
45887;SDS011;31595;51.418;7.572;2023-04-29T08:35:48;26.73;;;21.85;;
45887;SDS011;31595;51.418;7.572;2023-04-29T08:38:28;29.98;;;22.95;;
45887;SDS011;31595;51.418;7.572;2023-04-29T08:40:55;32.38;;;24.70;;
45887;SDS011;31595;51.418;7.572;2023-04-29T08:43:23;37.42;;;25.95;;
45887;SDS011;31595;51.418;7.572;2023-04-29T08:45:51;42.55;;;30.90;;
45887;SDS011;31595;51.418;7.572;2023-04-29T08:48:20;40.08;;;28.83;;
45887;SDS011;31595;51.418;7.572;2023-04-29T08:50:48;41.47;;;30.17;;
45887;SDS011;31595;51.418;7.572;2023-04-29T08:53:15;42.30;;;30.88;;
45887;SDS011;31595;51.418;7.572;2023-04-29T08:55:43;40.72;;;28.90;;
45887;SDS011;31595;51.418;7.572;2023-04-29T08:58:12;42.53;;;31.25;;
45887;SDS011;31595;51.418;7.572;2023-04-29T09:00:41;36.17;;;27.40;;
45887;SDS011;31595;51.418;7.572;2023-04-29T09:03:11;39.42;;;28.65;;
45887;SDS011;31595;51.418;7.572;2023-04-29T09:05:44;36.42;;;27.60;;
45887;SDS011;31595;51.418;7.572;2023-04-29T09:08:15;34.55;;;24.50;;
45887;SDS011;31595;51.418;7.572;2023-04-29T09:10:43;40.17;;;27.73;;
45887;SDS011;31595;51.418;7.572;2023-04-29T09:13:21;38.78;;;26.75;;
45887;SDS011;31595;51.418;7.572;2023-04-29T09:15:49;42.85;;;29.15;;
45887;SDS011;31595;51.418;7.572;2023-04-29T09:21:14;42.58;;;29.45;;
45887;SDS011;31595;51.418;7.572;2023-04-29T09:23:43;43.65;;;28.85;;
45887;SDS011;31595;51.418;7.572;2023-04-29T09:26:10;42.80;;;28.05;;
45887;SDS011;31595;51.418;7.572;2023-04-29T09:28:38;45.97;;;29.85;;
45887;SDS011;31595;51.418;7.572;2023-04-29T09:31:08;42.00;;;29.77;;
45887;SDS011;31595;51.418;7.572;2023-04-29T09:33:48;48.22;;;32.00;;
45887;SDS011;31595;51.418;7.572;2023-04-29T09:36:37;47.65;;;31.92;;
45887;SDS011;31595;51.418;7.572;2023-04-29T09:39:11;47.38;;;31.48;;
45887;SDS011;31595;51.418;7.572;2023-04-29T09:41:40;46.85;;;30.73;;
45887;SDS011;31595;51.418;7.572;2023-04-29T09:44:22;43.83;;;30.65;;
45887;SDS011;31595;51.418;7.572;2023-04-29T09:46:53;50.65;;;31.65;;
45887;SDS011;31595;51.418;7.572;2023-04-29T09:49:22;47.13;;;30.45;;
45887;SDS011;31595;51.418;7.572;2023-04-29T09:51:52;42.17;;;30.40;;
45887;SDS011;31595;51.418;7.572;2023-04-29T09:54:20;43.83;;;29.70;;
45887;SDS011;31595;51.418;7.572;2023-04-29T09:56:49;44.78;;;31.48;;
45887;SDS011;31595;51.418;7.572;2023-04-29T09:59:17;44.00;;;30.48;;
45887;SDS011;31595;51.418;7.572;2023-04-29T10:01:46;41.97;;;29.58;;
45887;SDS011;31595;51.418;7.572;2023-04-29T10:04:15;47.08;;;32.35;;
45887;SDS011;31595;51.418;7.572;2023-04-29T10:06:43;47.42;;;32.35;;
45887;SDS011;31595;51.418;7.572;2023-04-29T10:09:16;46.75;;;32.63;;
45887;SDS011;31595;51.418;7.572;2023-04-29T10:11:45;45.47;;;31.83;;
45887;SDS011;31595;51.418;7.572;2023-04-29T10:14:14;41.97;;;28.80;;
45887;SDS011;31595;51.418;7.572;2023-04-29T10:16:46;40.97;;;30.30;;
45887;SDS011;31595;51.418;7.572;2023-04-29T10:19:14;43.35;;;27.33;;
45887;SDS011;31595;51.418;7.572;2023-04-29T10:21:50;39.97;;;28.17;;
45887;SDS011;31595;51.418;7.572;2023-04-29T10:24:21;39.67;;;27.00;;
45887;SDS011;31595;51.418;7.572;2023-04-29T10:26:51;38.22;;;26.85;;
45887;SDS011;31595;51.418;7.572;2023-04-29T10:29:21;32.55;;;25.80;;
45887;SDS011;31595;51.418;7.572;2023-04-29T10:31:50;32.53;;;25.92;;
45887;SDS011;31595;51.418;7.572;2023-04-29T10:34:19;33.47;;;26.33;;
45887;SDS011;31595;51.418;7.572;2023-04-29T10:36:47;36.47;;;27.52;;
45887;SDS011;31595;51.418;7.572;2023-04-29T10:39:20;34.65;;;27.00;;
45887;SDS011;31595;51.418;7.572;2023-04-29T10:41:53;29.70;;;23.98;;
45887;SDS011;31595;51.418;7.572;2023-04-29T10:44:22;30.33;;;24.48;;
45887;SDS011;31595;51.418;7.572;2023-04-29T10:46:55;27.88;;;22.55;;
45887;SDS011;31595;51.418;7.572;2023-04-29T10:50:00;27.13;;;22.67;;
45887;SDS011;31595;51.418;7.572;2023-04-29T10:52:29;27.90;;;22.60;;
45887;SDS011;31595;51.418;7.572;2023-04-29T10:55:02;27.23;;;23.35;;
45887;SDS011;31595;51.418;7.572;2023-04-29T10:57:29;30.48;;;25.42;;
45887;SDS011;31595;51.418;7.572;2023-04-29T10:59:56;23.95;;;21.00;;
45887;SDS011;31595;51.418;7.572;2023-04-29T11:02:24;26.20;;;22.52;;
45887;SDS011;31595;51.418;7.572;2023-04-29T11:05:07;22.55;;;19.98;;
45887;SDS011;31595;51.418;7.572;2023-04-29T11:07:35;27.17;;;23.00;;
45887;SDS011;31595;51.418;7.572;2023-04-29T11:10:04;24.30;;;20.63;;
45887;SDS011;31595;51.418;7.572;2023-04-29T11:12:33;23.35;;;20.67;;
45887;SDS011;31595;51.418;7.572;2023-04-29T11:15:00;24.27;;;20.42;;
45887;SDS011;31595;51.418;7.572;2023-04-29T11:17:34;22.52;;;18.23;;
45887;SDS011;31595;51.418;7.572;2023-04-29T11:20:02;20.08;;;17.25;;
45887;SDS011;31595;51.418;7.572;2023-04-29T11:22:29;18.25;;;16.17;;
45887;SDS011;31595;51.418;7.572;2023-04-29T11:24:58;17.73;;;15.70;;
45887;SDS011;31595;51.418;7.572;2023-04-29T11:27:30;17.60;;;15.65;;
45887;SDS011;31595;51.418;7.572;2023-04-29T11:29:58;17.60;;;15.25;;
45887;SDS011;31595;51.418;7.572;2023-04-29T11:32:29;17.85;;;15.95;;
45887;SDS011;31595;51.418;7.572;2023-04-29T11:35:07;17.33;;;15.65;;
45887;SDS011;31595;51.418;7.572;2023-04-29T11:37:35;18.23;;;16.00;;
45887;SDS011;31595;51.418;7.572;2023-04-29T11:40:03;13.43;;;11.02;;
45887;SDS011;31595;51.418;7.572;2023-04-29T11:42:34;16.58;;;14.77;;
45887;SDS011;31595;51.418;7.572;2023-04-29T11:45:02;21.23;;;18.80;;
45887;SDS011;31595;51.418;7.572;2023-04-29T11:47:29;21.80;;;18.70;;
45887;SDS011;31595;51.418;7.572;2023-04-29T11:50:03;20.70;;;18.45;;
45887;SDS011;31595;51.418;7.572;2023-04-29T11:52:32;22.38;;;18.20;;
45887;SDS011;31595;51.418;7.572;2023-04-29T11:57:29;23.92;;;21.17;;
45887;SDS011;31595;51.418;7.572;2023-04-29T11:59:58;22.58;;;20.17;;
45887;SDS011;31595;51.418;7.572;2023-04-29T12:02:28;22.40;;;20.17;;
45887;SDS011;31595;51.418;7.572;2023-04-29T12:04:56;18.65;;;16.75;;
45887;SDS011;31595;51.418;7.572;2023-04-29T12:07:25;20.58;;;18.38;;
45887;SDS011;31595;51.418;7.572;2023-04-29T12:09:53;21.10;;;18.85;;
45887;SDS011;31595;51.418;7.572;2023-04-29T12:12:21;19.90;;;17.90;;
45887;SDS011;31595;51.418;7.572;2023-04-29T12:14:48;20.88;;;18.40;;
45887;SDS011;31595;51.418;7.572;2023-04-29T12:17:17;18.75;;;16.77;;
45887;SDS011;31595;51.418;7.572;2023-04-29T12:19:45;17.90;;;15.82;;
45887;SDS011;31595;51.418;7.572;2023-04-29T12:22:13;17.27;;;15.50;;
45887;SDS011;31595;51.418;7.572;2023-04-29T12:24:41;17.50;;;15.23;;
45887;SDS011;31595;51.418;7.572;2023-04-29T12:27:08;17.75;;;15.05;;
45887;SDS011;31595;51.418;7.572;2023-04-29T12:29:36;19.23;;;14.70;;
45887;SDS011;31595;51.418;7.572;2023-04-29T12:32:05;16.85;;;14.95;;
45887;SDS011;31595;51.418;7.572;2023-04-29T12:34:34;17.90;;;16.00;;
45887;SDS011;31595;51.418;7.572;2023-04-29T12:37:01;15.73;;;14.00;;
45887;SDS011;31595;51.418;7.572;2023-04-29T12:39:29;15.93;;;13.75;;
45887;SDS011;31595;51.418;7.572;2023-04-29T12:41:57;13.93;;;12.45;;
45887;SDS011;31595;51.418;7.572;2023-04-29T12:44:33;15.13;;;13.63;;
45887;SDS011;31595;51.418;7.572;2023-04-29T12:47:05;15.02;;;13.43;;
45887;SDS011;31595;51.418;7.572;2023-04-29T12:49:35;17.70;;;14.80;;
45887;SDS011;31595;51.418;7.572;2023-04-29T12:52:04;19.20;;;16.30;;
45887;SDS011;31595;51.418;7.572;2023-04-29T12:54:34;17.85;;;15.98;;
45887;SDS011;31595;51.418;7.572;2023-04-29T12:57:02;18.63;;;16.52;;
45887;SDS011;31595;51.418;7.572;2023-04-29T12:59:29;18.02;;;16.23;;
45887;SDS011;31595;51.418;7.572;2023-04-29T13:01:57;19.17;;;15.38;;
45887;SDS011;31595;51.418;7.572;2023-04-29T13:04:24;17.67;;;16.05;;
45887;SDS011;31595;51.418;7.572;2023-04-29T13:06:53;18.70;;;14.50;;
45887;SDS011;31595;51.418;7.572;2023-04-29T13:09:24;17.98;;;16.08;;
45887;SDS011;31595;51.418;7.572;2023-04-29T13:11:52;19.13;;;16.30;;
45887;SDS011;31595;51.418;7.572;2023-04-29T13:14:19;17.38;;;15.68;;
45887;SDS011;31595;51.418;7.572;2023-04-29T13:16:47;15.93;;;13.35;;
45887;SDS011;31595;51.418;7.572;2023-04-29T13:19:14;19.58;;;15.45;;
45887;SDS011;31595;51.418;7.572;2023-04-29T13:21:41;18.98;;;16.10;;
45887;SDS011;31595;51.418;7.572;2023-04-29T13:24:12;15.02;;;13.43;;
45887;SDS011;31595;51.418;7.572;2023-04-29T13:26:42;14.75;;;13.25;;
45887;SDS011;31595;51.418;7.572;2023-04-29T13:29:10;15.65;;;12.32;;
45887;SDS011;31595;51.418;7.572;2023-04-29T13:31:37;14.88;;;13.27;;
45887;SDS011;31595;51.418;7.572;2023-04-29T13:34:04;16.55;;;13.70;;
45887;SDS011;31595;51.418;7.572;2023-04-29T13:36:32;15.63;;;13.82;;
45887;SDS011;31595;51.418;7.572;2023-04-29T13:38:59;14.10;;;12.65;;
45887;SDS011;31595;51.418;7.572;2023-04-29T13:41:27;12.48;;;10.93;;
45887;SDS011;31595;51.418;7.572;2023-04-29T13:43:55;12.20;;;11.00;;
45887;SDS011;31595;51.418;7.572;2023-04-29T13:46:22;12.15;;;10.95;;
45887;SDS011;31595;51.418;7.572;2023-04-29T13:48:49;11.93;;;10.73;;
45887;SDS011;31595;51.418;7.572;2023-04-29T13:51:16;12.18;;;10.93;;
45887;SDS011;31595;51.418;7.572;2023-04-29T13:53:44;12.55;;;11.13;;
45887;SDS011;31595;51.418;7.572;2023-04-29T13:56:11;10.77;;;9.65;;
45887;SDS011;31595;51.418;7.572;2023-04-29T13:58:39;12.38;;;10.85;;
45887;SDS011;31595;51.418;7.572;2023-04-29T14:01:07;12.20;;;10.95;;
45887;SDS011;31595;51.418;7.572;2023-04-29T14:03:34;12.25;;;10.55;;
45887;SDS011;31595;51.418;7.572;2023-04-29T14:06:02;12.02;;;10.77;;
45887;SDS011;31595;51.418;7.572;2023-04-29T14:08:29;13.85;;;11.35;;
45887;SDS011;31595;51.418;7.572;2023-04-29T14:10:56;12.73;;;11.45;;
45887;SDS011;31595;51.418;7.572;2023-04-29T14:13:23;14.07;;;12.65;;
45887;SDS011;31595;51.418;7.572;2023-04-29T14:15:52;13.00;;;11.68;;
45887;SDS011;31595;51.418;7.572;2023-04-29T14:18:21;13.55;;;12.23;;
45887;SDS011;31595;51.418;7.572;2023-04-29T14:20:48;13.05;;;11.68;;
45887;SDS011;31595;51.418;7.572;2023-04-29T14:23:15;13.40;;;12.00;;
45887;SDS011;31595;51.418;7.572;2023-04-29T14:25:43;14.65;;;10.95;;
45887;SDS011;31595;51.418;7.572;2023-04-29T14:28:10;12.73;;;11.32;;
45887;SDS011;31595;51.418;7.572;2023-04-29T14:30:37;13.30;;;11.65;;
45887;SDS011;31595;51.418;7.572;2023-04-29T14:33:07;13.60;;;11.48;;
45887;SDS011;31595;51.418;7.572;2023-04-29T14:35:34;12.48;;;11.23;;